Time,TemperatureF,DewpointF,PressureIn,WindDirection,WindDirectionDegrees,WindSpeedMPH,WindSpeedGustMPH,Humidity,HourlyPrecipIn,Conditions,Clouds,dailyrainin,SoftwareType,DateUTC
2013-06-03 00:03:00,64.0,-99.9,-100.00,SW,220,0.0,2.0,-999,0.00,,,-99.99,,2013-06-03 04:03:00,
2013-06-03 00:13:00,64.0,-99.9,-100.00,West,270,0.0,1.0,-999,0.00,,,-99.99,,2013-06-03 04:13:00,
2013-06-03 00:23:00,64.0,-99.9,-100.00,SW,215,1.0,2.0,-999,0.00,,,-99.99,,2013-06-03 04:23:00,
2013-06-03 00:33:00,64.0,-99.9,-100.00,SSW,210,0.0,2.0,-999,0.00,,,-99.99,,2013-06-03 04:33:00,
2013-06-03 00:42:00,63.0,-99.9,-100.00,SSW,195,1.0,1.0,-999,0.00,,,-99.99,,2013-06-03 04:42:00,
2013-06-03 00:53:00,63.0,-99.9,-100.00,SSW,210,0.0,2.0,-999,0.00,,,-99.99,,2013-06-03 04:53:00,
2013-06-03 01:03:00,63.0,-99.9,-100.00,SSW,200,0.0,1.0,-999,0.00,,,-99.99,,2013-06-03 05:03:00,
2013-06-03 01:13:00,63.0,-99.9,-100.00,South,185,0.0,1.0,-999,0.00,,,-99.99,,2013-06-03 05:13:00,
2013-06-03 01:22:00,63.0,-99.9,-100.00,South,180,0.0,1.0,-999,0.00,,,-99.99,,2013-06-03 05:22:00,
2013-06-03 01:32:00,63.0,-99.9,-100.00,SSE,165,1.0,1.0,-999,0.00,,,-99.99,,2013-06-03 05:32:00,
2013-06-03 01:43:00,63.0,-99.9,-100.00,SSE,160,0.0,1.0,-999,0.00,,,-99.99,,2013-06-03 05:43:00,
2013-06-03 01:52:00,62.0,-99.9,-100.00,SSW,200,0.0,2.0,-999,0.00,,,-99.99,,2013-06-03 05:52:00,
2013-06-03 02:02:00,62.0,-99.9,-100.00,South,170,0.0,1.0,-999,0.00,,,-99.99,,2013-06-03 06:02:00,
2013-06-03 02:12:00,62.0,-99.9,-100.00,SSE,150,0.0,1.0,-999,0.00,,,-99.99,,2013-06-03 06:12:00,
2013-06-03 02:22:00,62.0,-99.9,-100.00,South,175,0.0,3.0,-999,0.00,,,-99.99,,2013-06-03 06:22:00,
2013-06-03 02:32:00,62.0,-99.9,-100.00,SSW,200,1.0,1.0,-999,0.00,,,-99.99,,2013-06-03 06:32:00,
2013-06-03 02:42:00,62.0,-99.9,-100.00,SSW,195,0.0,3.0,-999,0.00,,,-99.99,,2013-06-03 06:42:00,
2013-06-03 02:53:00,62.0,-99.9,-100.00,SSW,195,0.0,1.0,-999,0.00,,,-99.99,,2013-06-03 06:53:00,
2013-06-03 03:02:00,62.0,-99.9,-100.00,SSW,205,0.0,1.0,-999,0.00,,,-99.99,,2013-06-03 07:02:00,
2013-06-03 03:12:00,62.0,-99.9,-100.00,South,170,0.0,1.0,-999,0.00,,,-99.99,,2013-06-03 07:12:00,
2013-06-03 03:22:00,63.0,-99.9,-100.00,SSW,205,0.0,1.0,-999,0.00,,,-99.99,,2013-06-03 07:22:00,
2013-06-03 03:32:00,62.0,-99.9,-100.00,South,185,0.0,1.0,-999,0.00,,,-99.99,,2013-06-03 07:32:00,
2013-06-03 03:42:00,63.0,-99.9,-100.00,SW,225,1.0,2.0,-999,0.00,,,-99.99,,2013-06-03 07:42:00,
2013-06-03 03:52:00,63.0,62.0,-100.00,South,175,0.0,2.0,94,0.00,,,-99.99,,2013-06-03 07:52:00,
2013-06-03 04:02:00,63.0,62.0,-100.00,NNE,15,1.0,2.0,95,0.00,,,-99.99,,2013-06-03 08:02:00,
2013-06-03 04:12:00,63.0,61.0,-100.00,WSW,255,0.0,3.0,91,0.00,,,-99.99,,2013-06-03 08:12:00,
2013-06-03 04:22:00,63.0,59.0,-100.00,ENE,70,1.0,4.0,86,0.00,,,-99.99,,2013-06-03 08:22:00,
2013-06-03 04:32:00,63.0,60.0,-100.00,North,10,0.0,2.0,87,0.00,,,-99.99,,2013-06-03 08:32:00,
2013-06-03 04:42:00,63.0,60.0,-100.00,North,355,0.0,2.0,89,0.00,,,-99.99,,2013-06-03 08:42:00,
2013-06-03 04:52:00,63.0,59.0,-100.00,South,175,0.0,2.0,87,0.00,,,-99.99,,2013-06-03 08:52:00,
2013-06-03 05:02:00,63.0,60.0,-100.00,NNE,20,0.0,2.0,89,0.00,,,-99.99,,2013-06-03 09:02:00,
2013-06-03 05:12:00,63.0,59.0,-100.00,WSW,240,1.0,3.0,85,0.00,,,-99.99,,2013-06-03 09:12:00,
2013-06-03 05:22:00,63.0,58.0,-100.00,NW,320,1.0,6.0,85,0.00,,,-99.99,,2013-06-03 09:22:00,
2013-06-03 05:33:00,63.0,59.0,-100.00,NE,35,1.0,3.0,86,0.00,,,-99.99,,2013-06-03 09:33:00,
2013-06-03 05:42:00,63.0,59.0,-100.00,NNE,20,1.0,3.0,85,0.00,,,-99.99,,2013-06-03 09:42:00,
2013-06-03 05:52:00,63.0,58.0,-100.00,North,10,1.0,3.0,83,0.00,,,-99.99,,2013-06-03 09:52:00,
2013-06-03 06:03:00,63.0,58.0,-100.00,NW,325,2.0,6.0,82,0.00,,,-99.99,,2013-06-03 10:03:00,
2013-06-03 06:13:00,63.0,58.0,-100.00,NE,55,1.0,6.0,83,0.00,,,-99.99,,2013-06-03 10:13:00,
2013-06-03 06:22:00,63.0,58.0,-100.00,NNE,20,1.0,4.0,83,0.00,,,-99.99,,2013-06-03 10:22:00,
2013-06-03 06:33:00,63.0,58.0,-100.00,NE,40,1.0,4.0,83,0.00,,,-99.99,,2013-06-03 10:33:00,
2013-06-03 06:42:00,63.0,58.0,-100.00,NNE,25,1.0,5.0,83,0.00,,,-99.99,,2013-06-03 10:42:00,
2013-06-03 06:52:00,62.0,57.0,-100.00,NW,305,1.0,6.0,82,0.00,,,-99.99,,2013-06-03 10:52:00,
2013-06-03 07:02:00,63.0,58.0,-100.00,ENE,65,1.0,3.0,84,0.00,,,-99.99,,2013-06-03 11:02:00,
2013-06-03 07:12:00,62.0,58.0,-100.00,NNE,30,2.0,4.0,84,0.00,,,-99.99,,2013-06-03 11:12:00,
2013-06-03 07:22:00,62.0,57.0,-100.00,NW,320,1.0,4.0,81,0.00,,,-99.99,,2013-06-03 11:22:00,
2013-06-03 07:32:00,63.0,57.0,-100.00,NNE,20,1.0,3.0,80,0.00,,,-99.99,,2013-06-03 11:32:00,
2013-06-03 07:42:00,62.0,56.0,-100.00,North,0,1.0,6.0,80,0.00,,,-99.99,,2013-06-03 11:42:00,
2013-06-03 07:52:00,62.0,56.0,-100.00,NE,45,1.0,6.0,79,0.00,,,-99.99,,2013-06-03 11:52:00,
2013-06-03 08:02:00,62.0,55.0,-100.00,NNE,25,2.0,6.0,78,0.00,,,-99.99,,2013-06-03 12:02:00,
2013-06-03 08:12:00,62.0,56.0,-100.00,NNE,20,2.0,4.0,79,0.00,,,-99.99,,2013-06-03 12:12:00,
2013-06-03 08:22:00,62.0,55.0,-100.00,NE,35,2.0,6.0,78,0.00,,,-99.99,,2013-06-03 12:22:00,
2013-06-03 08:32:00,62.0,56.0,-100.00,NNE,30,2.0,4.0,79,0.00,,,-99.99,,2013-06-03 12:32:00,
2013-06-03 08:42:00,62.0,56.0,-100.00,NE,50,1.0,6.0,79,0.00,,,-99.99,,2013-06-03 12:42:00,
2013-06-03 08:52:00,63.0,56.0,-100.00,NNE,25,1.0,6.0,77,0.00,,,-99.99,,2013-06-03 12:52:00,
2013-06-03 09:02:00,64.0,56.0,-100.00,NE,45,1.0,5.0,76,0.00,,,-99.99,,2013-06-03 13:02:00,
2013-06-03 09:12:00,64.0,56.0,-100.00,North,0,2.0,6.0,76,0.00,,,-99.99,,2013-06-03 13:12:00,
2013-06-03 09:22:00,65.0,56.0,-100.00,East,80,2.0,7.0,71,0.00,,,-99.99,,2013-06-03 13:22:00,
2013-06-03 09:32:00,66.0,56.0,-100.00,NNE,30,2.0,6.0,70,0.00,,,-99.99,,2013-06-03 13:32:00,
2013-06-03 09:42:00,65.0,55.0,-100.00,North,5,1.0,7.0,70,0.00,,,-99.99,,2013-06-03 13:42:00,
2013-06-03 09:52:00,65.0,56.0,-100.00,North,5,2.0,6.0,72,0.00,,,-99.99,,2013-06-03 13:52:00,
2013-06-03 10:02:00,65.0,56.0,-100.00,North,10,2.0,6.0,72,0.00,,,-99.99,,2013-06-03 14:02:00,
2013-06-03 10:12:00,65.0,56.0,-100.00,NE,55,2.0,9.0,72,0.00,,,-99.99,,2013-06-03 14:12:00,
2013-06-03 10:22:00,65.0,56.0,-100.00,ENE,60,2.0,7.0,71,0.00,,,-99.99,,2013-06-03 14:22:00,
2013-06-03 10:32:00,65.0,56.0,-100.00,NNE,30,3.0,7.0,71,0.00,,,-99.99,,2013-06-03 14:32:00,
2013-06-03 10:42:00,65.0,55.0,-100.00,North,0,2.0,7.0,71,0.00,,,-99.99,,2013-06-03 14:42:00,
2013-06-03 10:52:00,65.0,56.0,-100.00,North,0,2.0,6.0,72,0.00,,,-99.99,,2013-06-03 14:52:00,
2013-06-03 11:02:00,66.0,56.0,-100.00,NW,310,1.0,5.0,70,0.00,,,-99.99,,2013-06-03 15:02:00,
2013-06-03 11:12:00,67.0,56.0,-100.00,North,350,1.0,6.0,69,0.00,,,-99.99,,2013-06-03 15:12:00,
2013-06-03 11:22:00,66.0,56.0,-100.00,NNE,20,2.0,4.0,70,0.00,,,-99.99,,2013-06-03 15:22:00,
2013-06-03 11:33:00,66.0,55.0,-100.00,NW,320,1.0,4.0,67,0.00,,,-99.99,,2013-06-03 15:33:00,
2013-06-03 11:43:00,67.0,55.0,-100.00,NNE,25,2.0,4.0,66,0.00,,,-99.99,,2013-06-03 15:43:00,
2013-06-03 11:53:00,67.0,57.0,-100.00,North,0,3.0,6.0,70,0.00,,,-99.99,,2013-06-03 15:53:00,
2013-06-03 12:03:00,67.0,56.0,-100.00,North,350,2.0,6.0,66,0.00,,,-99.99,,2013-06-03 16:03:00,
2013-06-03 12:13:00,67.0,56.0,-100.00,NNE,15,1.0,6.0,68,0.00,,,-99.99,,2013-06-03 16:13:00,
2013-06-03 12:23:00,68.0,57.0,-100.00,NNW,340,1.0,6.0,67,0.00,,,-99.99,,2013-06-03 16:23:00,
2013-06-03 12:33:00,68.0,56.0,-100.00,West,260,2.0,6.0,64,0.00,,,-99.99,,2013-06-03 16:33:00,
2013-06-03 12:42:00,70.0,56.0,-100.00,West,275,2.0,6.0,61,0.00,,,-99.99,,2013-06-03 16:42:00,
2013-06-03 12:53:00,69.0,56.0,-100.00,North,0,2.0,7.0,62,0.00,,,-99.99,,2013-06-03 16:53:00,
2013-06-03 13:02:00,69.0,56.0,-100.00,North,0,2.0,7.0,62,0.00,,,-99.99,,2013-06-03 17:02:00,
2013-06-03 13:12:00,71.0,57.0,-100.00,North,0,2.0,6.0,61,0.00,,,-99.99,,2013-06-03 17:12:00,
2013-06-03 13:22:00,70.0,56.0,-100.00,WSW,240,4.0,8.0,60,0.00,,,-99.99,,2013-06-03 17:22:00,
2013-06-03 13:33:00,71.0,56.0,-100.00,SSW,200,1.0,7.0,60,0.00,,,-99.99,,2013-06-03 17:33:00,
2013-06-03 13:42:00,70.0,57.0,-100.00,West,275,2.0,9.0,64,0.00,,,-99.99,,2013-06-03 17:42:00,
2013-06-03 13:52:00,68.0,55.0,-100.00,ENE,65,3.0,9.0,62,0.00,,,-99.99,,2013-06-03 17:52:00,
2013-06-03 14:02:00,69.0,57.0,-100.00,NNE,25,2.0,9.0,65,0.00,,,-99.99,,2013-06-03 18:02:00,
2013-06-03 14:12:00,68.0,57.0,-100.00,North,5,2.0,7.0,67,0.00,,,-99.99,,2013-06-03 18:12:00,
2013-06-03 14:22:00,69.0,56.0,-100.00,WNW,295,3.0,9.0,65,0.00,,,-99.99,,2013-06-03 18:22:00,
2013-06-03 14:32:00,69.0,57.0,-100.00,NE,55,1.0,6.0,65,0.00,,,-99.99,,2013-06-03 18:32:00,
2013-06-03 14:42:00,69.0,56.0,-100.00,North,5,2.0,6.0,62,0.00,,,-99.99,,2013-06-03 18:42:00,
2013-06-03 14:52:00,69.0,57.0,-100.00,NE,40,1.0,7.0,65,0.00,,,-99.99,,2013-06-03 18:52:00,
2013-06-03 15:03:00,69.0,57.0,-100.00,NW,315,1.0,5.0,64,0.00,,,-99.99,,2013-06-03 19:03:00,
2013-06-03 15:12:00,68.0,56.0,-100.00,North,0,4.0,9.0,67,0.00,,,-99.99,,2013-06-03 19:12:00,
2013-06-03 15:22:00,70.0,56.0,-100.00,ENE,75,2.0,6.0,61,0.00,,,-99.99,,2013-06-03 19:22:00,
2013-06-03 15:32:00,70.0,56.0,-100.00,North,5,3.0,10.0,62,0.00,,,-99.99,,2013-06-03 19:32:00,
2013-06-03 15:42:00,72.0,54.0,-100.00,NW,320,2.0,7.0,54,0.00,,,-99.99,,2013-06-03 19:42:00,
2013-06-03 15:52:00,70.0,56.0,-100.00,WNW,290,2.0,7.0,60,0.00,,,-99.99,,2013-06-03 19:52:00,
2013-06-03 16:02:00,70.0,57.0,-100.00,NE,40,2.0,6.0,62,0.00,,,-99.99,,2013-06-03 20:02:00,
2013-06-03 16:12:00,71.0,57.0,-100.00,NE,50,2.0,5.0,59,0.00,,,-99.99,,2013-06-03 20:12:00,
2013-06-03 16:22:00,71.0,55.0,-100.00,North,0,1.0,6.0,56,0.00,,,-99.99,,2013-06-03 20:22:00,
2013-06-03 16:33:00,70.0,56.0,-100.00,NNE,20,2.0,9.0,60,0.00,,,-99.99,,2013-06-03 20:33:00,
2013-06-03 16:42:00,72.0,57.0,-100.00,NE,40,1.0,6.0,60,0.00,,,-99.99,,2013-06-03 20:42:00,
2013-06-03 16:52:00,70.0,55.0,-100.00,North,0,3.0,7.0,58,0.00,,,-99.99,,2013-06-03 20:52:00,
2013-06-03 17:02:00,70.0,55.0,-100.00,West,265,3.0,7.0,58,0.00,,,-99.99,,2013-06-03 21:02:00,
2013-06-03 17:12:00,71.0,55.0,-100.00,North,5,2.0,6.0,57,0.00,,,-99.99,,2013-06-03 21:12:00,
2013-06-03 17:22:00,70.0,55.0,-100.00,WSW,250,4.0,9.0,58,0.00,,,-99.99,,2013-06-03 21:22:00,
2013-06-03 17:33:00,71.0,55.0,-100.00,NNE,25,2.0,11.0,57,0.00,,,-99.99,,2013-06-03 21:33:00,
2013-06-03 17:43:00,70.0,56.0,-100.00,NNE,30,1.0,6.0,60,0.00,,,-99.99,,2013-06-03 21:43:00,
2013-06-03 17:53:00,70.0,54.0,-100.00,NNE,30,2.0,6.0,58,0.00,,,-99.99,,2013-06-03 21:53:00,
2013-06-03 18:03:00,71.0,55.0,-100.00,West,270,1.0,5.0,57,0.00,,,-99.99,,2013-06-03 22:03:00,
2013-06-03 18:12:00,70.0,55.0,-100.00,NE,50,2.0,7.0,58,0.00,,,-99.99,,2013-06-03 22:12:00,
2013-06-03 18:22:00,70.0,55.0,-100.00,North,0,1.0,4.0,57,0.00,,,-99.99,,2013-06-03 22:22:00,
2013-06-03 18:33:00,69.0,55.0,-100.00,WNW,300,2.0,6.0,59,0.00,,,-99.99,,2013-06-03 22:33:00,
2013-06-03 18:42:00,68.0,54.0,-100.00,NE,50,2.0,6.0,61,0.00,,,-99.99,,2013-06-03 22:42:00,
2013-06-03 18:52:00,69.0,54.0,-100.00,North,350,1.0,7.0,58,0.00,,,-99.99,,2013-06-03 22:52:00,
2013-06-03 19:02:00,68.0,55.0,-100.00,North,5,3.0,6.0,62,0.00,,,-99.99,,2013-06-03 23:02:00,
2013-06-03 19:12:00,66.0,54.0,-100.00,NNW,335,2.0,6.0,64,0.00,,,-99.99,,2013-06-03 23:12:00,
2013-06-03 19:22:00,67.0,53.0,-100.00,North,0,2.0,7.0,61,0.00,,,-99.99,,2013-06-03 23:22:00,
2013-06-03 19:32:00,67.0,53.0,-100.00,North,10,1.0,9.0,60,0.00,,,-99.99,,2013-06-03 23:32:00,
2013-06-03 19:42:00,67.0,54.0,-100.00,ESE,110,1.0,7.0,63,0.00,,,-99.99,,2013-06-03 23:42:00,
2013-06-03 19:52:00,66.0,54.0,-100.00,NNE,15,2.0,9.0,63,0.00,,,-99.99,,2013-06-03 23:52:00,
2013-06-03 20:02:00,66.0,53.0,-100.00,North,0,2.0,7.0,63,0.00,,,-99.99,,2013-06-04 00:02:00,
2013-06-03 20:12:00,65.0,53.0,-100.00,North,355,2.0,5.0,63,0.00,,,-99.99,,2013-06-04 00:12:00,
2013-06-03 20:22:00,65.0,53.0,-100.00,NNE,15,1.0,6.0,65,0.00,,,-99.99,,2013-06-04 00:22:00,
2013-06-03 20:32:00,65.0,53.0,-100.00,North,10,1.0,4.0,67,0.00,,,-99.99,,2013-06-04 00:32:00,
2013-06-03 20:42:00,64.0,53.0,-100.00,NE,35,1.0,4.0,66,0.00,,,-99.99,,2013-06-04 00:42:00,
2013-06-03 20:52:00,64.0,52.0,-100.00,NE,45,1.0,4.0,66,0.00,,,-99.99,,2013-06-04 00:52:00,
2013-06-03 21:02:00,63.0,52.0,-100.00,North,0,0.0,2.0,67,0.00,,,-99.99,,2013-06-04 01:02:00,
2013-06-03 21:12:00,63.0,53.0,-100.00,NE,35,0.0,3.0,69,0.00,,,-99.99,,2013-06-04 01:12:00,
2013-06-03 21:22:00,62.0,53.0,-100.00,NNE,25,0.0,1.0,72,0.00,,,-99.99,,2013-06-04 01:22:00,
2013-06-03 21:32:00,60.0,53.0,-100.00,SSW,205,1.0,3.0,79,0.00,,,-99.99,,2013-06-04 01:32:00,
2013-06-03 21:42:00,59.0,54.0,-100.00,SW,230,1.0,2.0,82,0.00,,,-99.99,,2013-06-04 01:42:00,
2013-06-03 21:52:00,58.0,54.0,-100.00,SW,230,1.0,3.0,85,0.00,,,-99.99,,2013-06-04 01:52:00,
2013-06-03 22:02:00,58.0,54.0,-100.00,SW,220,1.0,3.0,87,0.00,,,-99.99,,2013-06-04 02:02:00,
2013-06-03 22:12:00,57.0,54.0,-100.00,SSW,210,1.0,3.0,90,0.00,,,-99.99,,2013-06-04 02:12:00,
2013-06-03 22:22:00,57.0,54.0,-100.00,SW,230,1.0,4.0,90,0.00,,,-99.99,,2013-06-04 02:22:00,
2013-06-03 22:32:00,56.0,54.0,-100.00,SW,220,1.0,3.0,91,0.00,,,-99.99,,2013-06-04 02:32:00,
2013-06-03 22:42:00,55.0,-99.9,-100.00,SW,235,2.0,3.0,-999,0.00,,,-99.99,,2013-06-04 02:42:00,
2013-06-03 22:52:00,55.0,-99.9,-100.00,SW,220,1.0,3.0,-999,0.00,,,-99.99,,2013-06-04 02:52:00,
2013-06-03 23:02:00,55.0,-99.9,-100.00,SW,225,1.0,3.0,-999,0.00,,,-99.99,,2013-06-04 03:02:00,
2013-06-03 23:12:00,54.0,-99.9,-100.00,SSW,210,1.0,3.0,-999,0.00,,,-99.99,,2013-06-04 03:12:00,
2013-06-03 23:23:00,54.0,-99.9,-100.00,SW,225,0.0,3.0,-999,0.00,,,-99.99,,2013-06-04 03:23:00,
2013-06-03 23:33:00,54.0,-99.9,-100.00,SSW,205,1.0,2.0,-999,0.00,,,-99.99,,2013-06-04 03:33:00,
2013-06-03 23:43:00,53.0,-99.9,-100.00,SW,235,0.0,1.0,-999,0.00,,,-99.99,,2013-06-04 03:43:00,
2013-06-03 23:54:00,54.0,-99.9,-100.00,WSW,250,0.0,2.0,-999,0.00,,,-99.99,,2013-06-04 03:54:00,